sensor_id;sensor_type;location;lat;lon;timestamp;P1;durP1;ratioP1;P2;durP2;ratioP2
22254;SDS011;11296;42.684;23.322;2022-12-11T00:01:36;29.77;;;20.43;;
22254;SDS011;11296;42.684;23.322;2022-12-11T00:04:02;32.37;;;19.90;;
22254;SDS011;11296;42.684;23.322;2022-12-11T00:06:28;30.83;;;19.80;;
22254;SDS011;11296;42.684;23.322;2022-12-11T00:08:54;29.03;;;19.17;;
22254;SDS011;11296;42.684;23.322;2022-12-11T00:11:20;28.77;;;18.90;;
22254;SDS011;11296;42.684;23.322;2022-12-11T00:13:47;32.43;;;19.67;;
22254;SDS011;11296;42.684;23.322;2022-12-11T00:16:12;31.30;;;20.10;;
22254;SDS011;11296;42.684;23.322;2022-12-11T00:18:38;37.93;;;23.87;;
22254;SDS011;11296;42.684;23.322;2022-12-11T00:21:07;32.37;;;21.63;;
22254;SDS011;11296;42.684;23.322;2022-12-11T00:23:34;31.40;;;21.43;;
22254;SDS011;11296;42.684;23.322;2022-12-11T00:26:04;27.13;;;19.27;;
22254;SDS011;11296;42.684;23.322;2022-12-11T00:28:54;29.80;;;19.80;;
22254;SDS011;11296;42.684;23.322;2022-12-11T00:31:23;29.10;;;17.13;;
22254;SDS011;11296;42.684;23.322;2022-12-11T00:36:36;27.93;;;17.50;;
22254;SDS011;11296;42.684;23.322;2022-12-11T00:39:02;28.23;;;18.53;;
22254;SDS011;11296;42.684;23.322;2022-12-11T00:41:32;25.13;;;17.40;;
22254;SDS011;11296;42.684;23.322;2022-12-11T00:44:02;29.77;;;17.40;;
22254;SDS011;11296;42.684;23.322;2022-12-11T00:46:33;25.03;;;16.77;;
22254;SDS011;11296;42.684;23.322;2022-12-11T00:48:59;29.37;;;17.70;;
22254;SDS011;11296;42.684;23.322;2022-12-11T00:51:25;28.80;;;14.53;;
22254;SDS011;11296;42.684;23.322;2022-12-11T00:53:54;24.97;;;15.90;;
22254;SDS011;11296;42.684;23.322;2022-12-11T00:56:21;20.77;;;15.33;;
22254;SDS011;11296;42.684;23.322;2022-12-11T00:58:51;25.97;;;15.97;;
22254;SDS011;11296;42.684;23.322;2022-12-11T01:01:18;25.37;;;16.70;;
22254;SDS011;11296;42.684;23.322;2022-12-11T01:03:48;28.03;;;14.97;;
22254;SDS011;11296;42.684;23.322;2022-12-11T01:06:15;20.13;;;14.53;;
22254;SDS011;11296;42.684;23.322;2022-12-11T01:08:43;24.13;;;15.10;;
22254;SDS011;11296;42.684;23.322;2022-12-11T01:11:10;22.47;;;15.07;;
22254;SDS011;11296;42.684;23.322;2022-12-11T01:13:38;21.13;;;13.40;;
22254;SDS011;11296;42.684;23.322;2022-12-11T01:16:14;18.70;;;12.67;;
22254;SDS011;11296;42.684;23.322;2022-12-11T01:18:40;25.07;;;14.17;;
22254;SDS011;11296;42.684;23.322;2022-12-11T01:21:10;20.57;;;13.80;;
22254;SDS011;11296;42.684;23.322;2022-12-11T01:23:37;21.70;;;13.60;;
22254;SDS011;11296;42.684;23.322;2022-12-11T01:26:08;19.00;;;12.70;;
22254;SDS011;11296;42.684;23.322;2022-12-11T01:28:38;22.33;;;13.03;;
22254;SDS011;11296;42.684;23.322;2022-12-11T01:31:08;21.43;;;13.00;;
22254;SDS011;11296;42.684;23.322;2022-12-11T01:33:35;17.07;;;12.13;;
22254;SDS011;11296;42.684;23.322;2022-12-11T01:36:00;18.87;;;12.13;;
22254;SDS011;11296;42.684;23.322;2022-12-11T01:38:56;15.50;;;11.73;;
22254;SDS011;11296;42.684;23.322;2022-12-11T01:41:22;11.70;;;7.40;;
22254;SDS011;11296;42.684;23.322;2022-12-11T01:44:01;13.13;;;9.43;;
22254;SDS011;11296;42.684;23.322;2022-12-11T01:46:27;14.03;;;8.93;;
22254;SDS011;11296;42.684;23.322;2022-12-11T01:48:54;15.53;;;10.60;;
22254;SDS011;11296;42.684;23.322;2022-12-11T01:51:26;17.77;;;11.83;;
22254;SDS011;11296;42.684;23.322;2022-12-11T01:53:55;17.87;;;11.40;;
22254;SDS011;11296;42.684;23.322;2022-12-11T01:56:26;18.87;;;10.03;;
22254;SDS011;11296;42.684;23.322;2022-12-11T01:58:58;15.47;;;9.97;;
22254;SDS011;11296;42.684;23.322;2022-12-11T02:01:33;20.03;;;11.47;;
22254;SDS011;11296;42.684;23.322;2022-12-11T02:04:04;15.00;;;9.77;;
22254;SDS011;11296;42.684;23.322;2022-12-11T02:06:39;20.37;;;11.50;;
22254;SDS011;11296;42.684;23.322;2022-12-11T02:09:11;19.83;;;10.53;;
22254;SDS011;11296;42.684;23.322;2022-12-11T02:17:03;9.00;;;5.47;;
22254;SDS011;11296;42.684;23.322;2022-12-11T02:19:58;6.10;;;4.20;;
22254;SDS011;11296;42.684;23.322;2022-12-11T02:25:30;7.93;;;3.20;;
22254;SDS011;11296;42.684;23.322;2022-12-11T02:30:51;4.43;;;2.70;;
22254;SDS011;11296;42.684;23.322;2022-12-11T02:33:23;4.57;;;2.47;;
22254;SDS011;11296;42.684;23.322;2022-12-11T02:35:58;4.30;;;2.60;;
22254;SDS011;11296;42.684;23.322;2022-12-11T02:38:31;4.90;;;2.90;;
22254;SDS011;11296;42.684;23.322;2022-12-11T02:41:01;5.23;;;3.27;;
22254;SDS011;11296;42.684;23.322;2022-12-11T02:43:32;5.03;;;3.20;;
22254;SDS011;11296;42.684;23.322;2022-12-11T02:46:00;5.40;;;3.17;;
22254;SDS011;11296;42.684;23.322;2022-12-11T02:48:32;4.17;;;3.40;;
22254;SDS011;11296;42.684;23.322;2022-12-11T02:50:59;4.30;;;2.97;;
22254;SDS011;11296;42.684;23.322;2022-12-11T02:53:28;6.93;;;3.40;;
22254;SDS011;11296;42.684;23.322;2022-12-11T02:56:04;5.77;;;3.00;;
22254;SDS011;11296;42.684;23.322;2022-12-11T02:59:02;4.67;;;3.20;;
22254;SDS011;11296;42.684;23.322;2022-12-11T03:01:35;5.63;;;2.80;;
22254;SDS011;11296;42.684;23.322;2022-12-11T03:04:01;3.57;;;2.83;;
22254;SDS011;11296;42.684;23.322;2022-12-11T03:09:46;3.40;;;2.33;;
22254;SDS011;11296;42.684;23.322;2022-12-11T03:12:18;4.43;;;2.83;;
22254;SDS011;11296;42.684;23.322;2022-12-11T03:14:47;3.97;;;2.90;;
22254;SDS011;11296;42.684;23.322;2022-12-11T03:17:15;6.90;;;3.10;;
22254;SDS011;11296;42.684;23.322;2022-12-11T03:22:20;5.07;;;2.57;;
22254;SDS011;11296;42.684;23.322;2022-12-11T03:25:01;5.03;;;3.03;;
22254;SDS011;11296;42.684;23.322;2022-12-11T03:27:44;2.40;;;2.20;;
22254;SDS011;11296;42.684;23.322;2022-12-11T03:30:32;3.17;;;2.30;;
22254;SDS011;11296;42.684;23.322;2022-12-11T03:33:08;3.97;;;1.90;;
22254;SDS011;11296;42.684;23.322;2022-12-11T03:35:41;3.30;;;1.83;;
22254;SDS011;11296;42.684;23.322;2022-12-11T03:38:15;4.47;;;2.10;;
22254;SDS011;11296;42.684;23.322;2022-12-11T03:40:48;3.40;;;1.80;;
22254;SDS011;11296;42.684;23.322;2022-12-11T03:43:16;2.77;;;1.90;;
22254;SDS011;11296;42.684;23.322;2022-12-11T03:45:42;2.07;;;1.50;;
22254;SDS011;11296;42.684;23.322;2022-12-11T03:48:11;3.87;;;1.43;;
22254;SDS011;11296;42.684;23.322;2022-12-11T03:50:39;2.10;;;1.60;;
22254;SDS011;11296;42.684;23.322;2022-12-11T03:53:06;2.67;;;1.27;;
22254;SDS011;11296;42.684;23.322;2022-12-11T03:55:32;1.73;;;1.40;;
22254;SDS011;11296;42.684;23.322;2022-12-11T03:58:02;1.37;;;1.27;;
22254;SDS011;11296;42.684;23.322;2022-12-11T04:00:28;2.90;;;1.30;;
22254;SDS011;11296;42.684;23.322;2022-12-11T04:02:54;2.70;;;1.27;;
22254;SDS011;11296;42.684;23.322;2022-12-11T04:05:50;1.20;;;0.90;;
22254;SDS011;11296;42.684;23.322;2022-12-11T04:08:20;2.83;;;1.07;;
22254;SDS011;11296;42.684;23.322;2022-12-11T04:10:47;1.83;;;1.13;;
22254;SDS011;11296;42.684;23.322;2022-12-11T04:13:33;1.53;;;1.00;;
22254;SDS011;11296;42.684;23.322;2022-12-11T04:15:59;0.70;;;0.70;;
22254;SDS011;11296;42.684;23.322;2022-12-11T04:18:25;2.10;;;1.10;;
22254;SDS011;11296;42.684;23.322;2022-12-11T04:21:09;2.47;;;1.10;;
22254;SDS011;11296;42.684;23.322;2022-12-11T04:23:53;3.73;;;1.20;;
22254;SDS011;11296;42.684;23.322;2022-12-11T04:26:45;1.53;;;0.90;;
22254;SDS011;11296;42.684;23.322;2022-12-11T04:29:12;1.47;;;1.10;;
22254;SDS011;11296;42.684;23.322;2022-12-11T04:31:38;2.80;;;1.20;;
22254;SDS011;11296;42.684;23.322;2022-12-11T04:34:07;2.50;;;0.80;;
22254;SDS011;11296;42.684;23.322;2022-12-11T04:36:42;2.00;;;0.90;;
22254;SDS011;11296;42.684;23.322;2022-12-11T04:39:09;1.37;;;0.60;;
22254;SDS011;11296;42.684;23.322;2022-12-11T04:41:34;1.00;;;0.70;;
22254;SDS011;11296;42.684;23.322;2022-12-11T04:44:01;1.27;;;0.47;;
22254;SDS011;11296;42.684;23.322;2022-12-11T04:46:30;1.33;;;0.63;;
22254;SDS011;11296;42.684;23.322;2022-12-11T04:48:55;1.60;;;0.50;;
22254;SDS011;11296;42.684;23.322;2022-12-11T04:51:21;1.10;;;0.57;;
22254;SDS011;11296;42.684;23.322;2022-12-11T04:53:50;0.50;;;0.30;;
22254;SDS011;11296;42.684;23.322;2022-12-11T04:56:16;1.80;;;0.30;;
22254;SDS011;11296;42.684;23.322;2022-12-11T04:58:45;0.43;;;0.30;;
22254;SDS011;11296;42.684;23.322;2022-12-11T05:01:13;0.93;;;0.60;;
22254;SDS011;11296;42.684;23.322;2022-12-11T05:03:44;1.03;;;0.50;;
22254;SDS011;11296;42.684;23.322;2022-12-11T05:06:10;2.83;;;0.40;;
22254;SDS011;11296;42.684;23.322;2022-12-11T05:08:37;1.03;;;0.40;;
22254;SDS011;11296;42.684;23.322;2022-12-11T05:11:09;2.50;;;0.53;;
22254;SDS011;11296;42.684;23.322;2022-12-11T05:13:36;0.50;;;0.30;;
22254;SDS011;11296;42.684;23.322;2022-12-11T05:16:04;0.30;;;0.30;;
22254;SDS011;11296;42.684;23.322;2022-12-11T05:18:41;0.30;;;0.30;;
22254;SDS011;11296;42.684;23.322;2022-12-11T05:21:08;1.70;;;0.50;;
22254;SDS011;11296;42.684;23.322;2022-12-11T05:23:43;0.70;;;0.40;;
22254;SDS011;11296;42.684;23.322;2022-12-11T05:26:12;0.57;;;0.40;;
22254;SDS011;11296;42.684;23.322;2022-12-11T05:28:41;0.80;;;0.30;;
22254;SDS011;11296;42.684;23.322;2022-12-11T05:31:16;0.60;;;0.40;;
22254;SDS011;11296;42.684;23.322;2022-12-11T05:33:44;1.07;;;0.30;;
22254;SDS011;11296;42.684;23.322;2022-12-11T05:36:21;0.73;;;0.30;;
22254;SDS011;11296;42.684;23.322;2022-12-11T05:38:53;2.90;;;0.67;;
22254;SDS011;11296;42.684;23.322;2022-12-11T05:41:40;0.77;;;0.50;;
22254;SDS011;11296;42.684;23.322;2022-12-11T05:44:10;1.83;;;0.40;;
22254;SDS011;11296;42.684;23.322;2022-12-11T05:46:39;1.27;;;0.50;;
22254;SDS011;11296;42.684;23.322;2022-12-11T05:49:08;0.73;;;0.63;;
22254;SDS011;11296;42.684;23.322;2022-12-11T05:51:50;1.90;;;0.50;;
22254;SDS011;11296;42.684;23.322;2022-12-11T05:55:44;2.40;;;0.60;;
22254;SDS011;11296;42.684;23.322;2022-12-11T05:58:36;0.50;;;0.40;;
22254;SDS011;11296;42.684;23.322;2022-12-11T06:01:22;2.17;;;0.57;;
22254;SDS011;11296;42.684;23.322;2022-12-11T06:03:53;1.40;;;0.50;;
22254;SDS011;11296;42.684;23.322;2022-12-11T06:06:19;2.23;;;0.60;;
22254;SDS011;11296;42.684;23.322;2022-12-11T06:09:10;1.30;;;0.50;;
22254;SDS011;11296;42.684;23.322;2022-12-11T06:12:09;0.60;;;0.30;;
22254;SDS011;11296;42.684;23.322;2022-12-11T06:15:16;2.03;;;0.50;;
22254;SDS011;11296;42.684;23.322;2022-12-11T06:17:44;0.83;;;0.57;;
22254;SDS011;11296;42.684;23.322;2022-12-11T06:20:10;1.63;;;0.60;;
22254;SDS011;11296;42.684;23.322;2022-12-11T06:22:38;2.17;;;0.80;;
22254;SDS011;11296;42.684;23.322;2022-12-11T06:25:07;1.03;;;0.60;;
22254;SDS011;11296;42.684;23.322;2022-12-11T06:27:35;2.50;;;0.60;;
22254;SDS011;11296;42.684;23.322;2022-12-11T06:30:01;1.17;;;0.60;;
22254;SDS011;11296;42.684;23.322;2022-12-11T06:32:36;0.60;;;0.50;;
22254;SDS011;11296;42.684;23.322;2022-12-11T06:35:02;1.63;;;0.60;;
22254;SDS011;11296;42.684;23.322;2022-12-11T06:37:30;1.27;;;0.70;;
22254;SDS011;11296;42.684;23.322;2022-12-11T06:39:56;1.07;;;0.70;;
22254;SDS011;11296;42.684;23.322;2022-12-11T06:42:22;1.37;;;0.87;;
22254;SDS011;11296;42.684;23.322;2022-12-11T06:44:48;1.63;;;0.90;;
22254;SDS011;11296;42.684;23.322;2022-12-11T06:47:16;1.73;;;0.70;;
22254;SDS011;11296;42.684;23.322;2022-12-11T06:49:57;0.93;;;0.50;;
22254;SDS011;11296;42.684;23.322;2022-12-11T06:52:24;1.07;;;0.40;;
22254;SDS011;11296;42.684;23.322;2022-12-11T06:54:52;0.83;;;0.50;;
22254;SDS011;11296;42.684;23.322;2022-12-11T06:57:26;1.13;;;0.53;;
22254;SDS011;11296;42.684;23.322;2022-12-11T06:59:52;0.40;;;0.40;;
22254;SDS011;11296;42.684;23.322;2022-12-11T07:02:18;1.83;;;0.40;;
22254;SDS011;11296;42.684;23.322;2022-12-11T07:04:44;0.63;;;0.53;;
22254;SDS011;11296;42.684;23.322;2022-12-11T07:07:11;1.67;;;0.50;;
22254;SDS011;11296;42.684;23.322;2022-12-11T07:09:37;2.40;;;0.53;;
22254;SDS011;11296;42.684;23.322;2022-12-11T07:12:05;1.40;;;0.40;;
22254;SDS011;11296;42.684;23.322;2022-12-11T07:14:31;1.50;;;0.50;;
22254;SDS011;11296;42.684;23.322;2022-12-11T07:16:57;1.63;;;0.50;;
22254;SDS011;11296;42.684;23.322;2022-12-11T07:19:31;0.90;;;0.67;;
22254;SDS011;11296;42.684;23.322;2022-12-11T07:22:23;2.10;;;0.50;;
22254;SDS011;11296;42.684;23.322;2022-12-11T07:25:08;2.20;;;0.80;;
22254;SDS011;11296;42.684;23.322;2022-12-11T07:35:43;4.57;;;2.33;;
22254;SDS011;11296;42.684;23.322;2022-12-11T07:42:04;2.50;;;0.67;;
22254;SDS011;11296;42.684;23.322;2022-12-11T07:49:45;3.70;;;1.00;;
22254;SDS011;11296;42.684;23.322;2022-12-11T07:52:21;0.40;;;0.30;;
22254;SDS011;11296;42.684;23.322;2022-12-11T07:54:47;2.90;;;0.70;;
22254;SDS011;11296;42.684;23.322;2022-12-11T07:57:15;2.27;;;0.70;;
22254;SDS011;11296;42.684;23.322;2022-12-11T07:59:41;3.40;;;1.00;;
22254;SDS011;11296;42.684;23.322;2022-12-11T08:02:08;1.90;;;0.87;;
22254;SDS011;11296;42.684;23.322;2022-12-11T08:04:38;0.50;;;0.50;;
22254;SDS011;11296;42.684;23.322;2022-12-11T08:07:27;1.87;;;0.60;;
22254;SDS011;11296;42.684;23.322;2022-12-11T08:10:00;1.93;;;0.70;;
22254;SDS011;11296;42.684;23.322;2022-12-11T08:12:37;2.37;;;0.77;;
22254;SDS011;11296;42.684;23.322;2022-12-11T08:15:16;3.63;;;0.80;;
22254;SDS011;11296;42.684;23.322;2022-12-11T08:17:52;1.70;;;0.63;;
22254;SDS011;11296;42.684;23.322;2022-12-11T08:20:36;2.00;;;0.70;;
22254;SDS011;11296;42.684;23.322;2022-12-11T08:23:13;1.23;;;0.87;;
22254;SDS011;11296;42.684;23.322;2022-12-11T08:26:04;3.53;;;0.93;;
22254;SDS011;11296;42.684;23.322;2022-12-11T08:29:49;1.07;;;0.87;;
22254;SDS011;11296;42.684;23.322;2022-12-11T08:32:34;2.20;;;0.90;;
22254;SDS011;11296;42.684;23.322;2022-12-11T08:39:25;3.13;;;1.80;;
22254;SDS011;11296;42.684;23.322;2022-12-11T08:42:01;1.47;;;0.90;;
22254;SDS011;11296;42.684;23.322;2022-12-11T08:44:34;18.43;;;16.00;;
22254;SDS011;11296;42.684;23.322;2022-12-11T08:47:01;1.30;;;1.20;;
22254;SDS011;11296;42.684;23.322;2022-12-11T08:49:53;2.40;;;1.00;;
22254;SDS011;11296;42.684;23.322;2022-12-11T08:52:27;4.40;;;3.00;;
22254;SDS011;11296;42.684;23.322;2022-12-11T08:55:37;1.53;;;1.10;;
22254;SDS011;11296;42.684;23.322;2022-12-11T08:58:03;6.67;;;3.40;;
22254;SDS011;11296;42.684;23.322;2022-12-11T09:00:32;3.00;;;1.00;;
22254;SDS011;11296;42.684;23.322;2022-12-11T09:03:10;2.83;;;1.17;;
22254;SDS011;11296;42.684;23.322;2022-12-11T09:10:05;128.07;;;56.60;;
22254;SDS011;11296;42.684;23.322;2022-12-11T09:13:47;3.77;;;2.97;;
22254;SDS011;11296;42.684;23.322;2022-12-11T09:17:55;3.90;;;1.47;;
22254;SDS011;11296;42.684;23.322;2022-12-11T09:21:36;4.20;;;1.23;;
22254;SDS011;11296;42.684;23.322;2022-12-11T09:28:40;2.13;;;1.10;;
22254;SDS011;11296;42.684;23.322;2022-12-11T09:35:20;0.80;;;0.60;;
22254;SDS011;11296;42.684;23.322;2022-12-11T09:56:38;1.93;;;0.80;;
22254;SDS011;11296;42.684;23.322;2022-12-11T10:09:25;2.20;;;0.70;;
22254;SDS011;11296;42.684;23.322;2022-12-11T10:18:21;3.00;;;1.43;;
22254;SDS011;11296;42.684;23.322;2022-12-11T10:28:07;1.93;;;0.70;;
22254;SDS011;11296;42.684;23.322;2022-12-11T10:33:58;1.03;;;0.60;;
22254;SDS011;11296;42.684;23.322;2022-12-11T10:39:51;2.97;;;1.10;;
22254;SDS011;11296;42.684;23.322;2022-12-11T10:48:53;1.53;;;0.70;;
22254;SDS011;11296;42.684;23.322;2022-12-11T10:51:34;0.93;;;0.80;;
22254;SDS011;11296;42.684;23.322;2022-12-11T11:07:40;0.80;;;0.53;;
22254;SDS011;11296;42.684;23.322;2022-12-11T11:10:38;0.60;;;0.60;;
22254;SDS011;11296;42.684;23.322;2022-12-11T11:13:30;0.40;;;0.40;;
22254;SDS011;11296;42.684;23.322;2022-12-11T11:16:33;1.87;;;0.87;;
22254;SDS011;11296;42.684;23.322;2022-12-11T12:05:17;2.43;;;0.93;;
22254;SDS011;11296;42.684;23.322;2022-12-11T12:13:02;2.40;;;1.20;;
22254;SDS011;11296;42.684;23.322;2022-12-11T12:55:56;2.03;;;1.77;;
22254;SDS011;11296;42.684;23.322;2022-12-11T12:58:41;1.73;;;1.53;;
22254;SDS011;11296;42.684;23.322;2022-12-11T13:01:18;2.57;;;1.63;;
22254;SDS011;11296;42.684;23.322;2022-12-11T13:03:54;1.50;;;1.33;;
22254;SDS011;11296;42.684;23.322;2022-12-11T13:06:40;2.53;;;1.40;;
22254;SDS011;11296;42.684;23.322;2022-12-11T13:09:21;1.40;;;1.30;;
22254;SDS011;11296;42.684;23.322;2022-12-11T13:11:50;1.90;;;1.33;;
22254;SDS011;11296;42.684;23.322;2022-12-11T13:14:25;2.80;;;1.30;;
22254;SDS011;11296;42.684;23.322;2022-12-11T13:17:05;2.47;;;1.50;;
22254;SDS011;11296;42.684;23.322;2022-12-11T13:19:49;1.20;;;1.10;;
22254;SDS011;11296;42.684;23.322;2022-12-11T13:28:45;2.37;;;1.33;;
22254;SDS011;11296;42.684;23.322;2022-12-11T13:34:04;1.27;;;0.90;;
22254;SDS011;11296;42.684;23.322;2022-12-11T13:36:48;1.37;;;1.03;;
22254;SDS011;11296;42.684;23.322;2022-12-11T13:42:27;1.70;;;1.20;;
22254;SDS011;11296;42.684;23.322;2022-12-11T13:45:20;1.77;;;1.20;;
22254;SDS011;11296;42.684;23.322;2022-12-11T13:47:55;1.63;;;1.07;;
22254;SDS011;11296;42.684;23.322;2022-12-11T13:50:33;2.17;;;1.50;;
22254;SDS011;11296;42.684;23.322;2022-12-11T13:53:01;1.33;;;1.07;;
22254;SDS011;11296;42.684;23.322;2022-12-11T13:55:37;1.23;;;0.80;;
22254;SDS011;11296;42.684;23.322;2022-12-11T13:58:24;2.20;;;1.10;;
22254;SDS011;11296;42.684;23.322;2022-12-11T14:01:11;1.87;;;1.10;;
22254;SDS011;11296;42.684;23.322;2022-12-11T14:03:56;2.17;;;1.10;;
22254;SDS011;11296;42.684;23.322;2022-12-11T14:06:45;2.00;;;1.30;;
22254;SDS011;11296;42.684;23.322;2022-12-11T14:09:43;2.60;;;1.63;;
22254;SDS011;11296;42.684;23.322;2022-12-11T14:12:17;2.70;;;1.60;;
22254;SDS011;11296;42.684;23.322;2022-12-11T14:15:04;2.30;;;1.70;;
22254;SDS011;11296;42.684;23.322;2022-12-11T14:17:32;2.43;;;1.70;;
22254;SDS011;11296;42.684;23.322;2022-12-11T14:20:03;2.47;;;1.90;;
22254;SDS011;11296;42.684;23.322;2022-12-11T14:22:33;4.97;;;2.60;;
22254;SDS011;11296;42.684;23.322;2022-12-11T14:25:17;3.30;;;2.10;;
22254;SDS011;11296;42.684;23.322;2022-12-11T14:30:57;5.30;;;2.90;;
22254;SDS011;11296;42.684;23.322;2022-12-11T14:33:41;4.47;;;2.50;;
22254;SDS011;11296;42.684;23.322;2022-12-11T14:36:20;4.97;;;2.63;;
22254;SDS011;11296;42.684;23.322;2022-12-11T14:38:59;3.97;;;2.60;;
22254;SDS011;11296;42.684;23.322;2022-12-11T14:41:45;3.47;;;2.30;;
22254;SDS011;11296;42.684;23.322;2022-12-11T14:44:17;4.97;;;2.33;;
22254;SDS011;11296;42.684;23.322;2022-12-11T14:47:04;3.67;;;2.10;;
22254;SDS011;11296;42.684;23.322;2022-12-11T14:53:07;5.20;;;2.33;;
22254;SDS011;11296;42.684;23.322;2022-12-11T14:55:41;3.07;;;2.00;;
22254;SDS011;11296;42.684;23.322;2022-12-11T14:58:20;4.30;;;2.43;;
22254;SDS011;11296;42.684;23.322;2022-12-11T15:01:00;3.30;;;2.00;;
22254;SDS011;11296;42.684;23.322;2022-12-11T15:03:34;4.27;;;2.00;;
22254;SDS011;11296;42.684;23.322;2022-12-11T15:09:08;3.07;;;1.90;;
22254;SDS011;11296;42.684;23.322;2022-12-11T15:12:06;4.57;;;2.73;;
22254;SDS011;11296;42.684;23.322;2022-12-11T15:15:01;4.70;;;3.10;;
22254;SDS011;11296;42.684;23.322;2022-12-11T15:17:45;2.10;;;1.47;;
22254;SDS011;11296;42.684;23.322;2022-12-11T15:20:40;1.87;;;1.23;;
22254;SDS011;11296;42.684;23.322;2022-12-11T15:24:00;3.63;;;1.83;;
22254;SDS011;11296;42.684;23.322;2022-12-11T15:27:48;2.53;;;1.70;;
22254;SDS011;11296;42.684;23.322;2022-12-11T15:39:19;1.57;;;1.37;;
22254;SDS011;11296;42.684;23.322;2022-12-11T15:48:59;4.40;;;2.60;;
22254;SDS011;11296;42.684;23.322;2022-12-11T15:55:12;4.30;;;2.40;;
22254;SDS011;11296;42.684;23.322;2022-12-11T16:00:54;4.47;;;2.83;;
22254;SDS011;11296;42.684;23.322;2022-12-11T16:03:21;5.60;;;3.47;;
22254;SDS011;11296;42.684;23.322;2022-12-11T16:05:58;7.73;;;3.77;;
22254;SDS011;11296;42.684;23.322;2022-12-11T16:08:28;6.07;;;3.87;;
22254;SDS011;11296;42.684;23.322;2022-12-11T16:10:57;3.63;;;2.90;;
22254;SDS011;11296;42.684;23.322;2022-12-11T16:13:22;6.33;;;4.33;;
22254;SDS011;11296;42.684;23.322;2022-12-11T16:15:49;3.07;;;2.50;;
22254;SDS011;11296;42.684;23.322;2022-12-11T16:18:17;4.27;;;3.10;;
22254;SDS011;11296;42.684;23.322;2022-12-11T16:20:45;5.37;;;2.90;;
22254;SDS011;11296;42.684;23.322;2022-12-11T16:23:12;4.53;;;2.90;;
22254;SDS011;11296;42.684;23.322;2022-12-11T16:25:42;4.23;;;2.90;;
22254;SDS011;11296;42.684;23.322;2022-12-11T16:28:10;13.20;;;7.03;;
22254;SDS011;11296;42.684;23.322;2022-12-11T16:30:37;5.63;;;4.23;;
22254;SDS011;11296;42.684;23.322;2022-12-11T16:33:04;7.33;;;5.50;;
22254;SDS011;11296;42.684;23.322;2022-12-11T16:35:32;5.67;;;3.70;;
22254;SDS011;11296;42.684;23.322;2022-12-11T16:37:58;9.03;;;5.37;;
22254;SDS011;11296;42.684;23.322;2022-12-11T16:40:27;6.63;;;3.90;;
22254;SDS011;11296;42.684;23.322;2022-12-11T16:42:55;3.83;;;2.70;;
22254;SDS011;11296;42.684;23.322;2022-12-11T16:45:22;4.73;;;3.57;;
22254;SDS011;11296;42.684;23.322;2022-12-11T16:47:50;4.30;;;3.53;;
22254;SDS011;11296;42.684;23.322;2022-12-11T16:50:19;4.27;;;2.50;;
22254;SDS011;11296;42.684;23.322;2022-12-11T16:52:53;3.10;;;2.57;;
22254;SDS011;11296;42.684;23.322;2022-12-11T16:55:19;3.77;;;2.83;;
22254;SDS011;11296;42.684;23.322;2022-12-11T16:57:48;5.57;;;3.40;;
22254;SDS011;11296;42.684;23.322;2022-12-11T17:00:14;4.80;;;2.83;;
22254;SDS011;11296;42.684;23.322;2022-12-11T17:02:40;4.43;;;3.23;;
22254;SDS011;11296;42.684;23.322;2022-12-11T17:05:23;3.10;;;2.60;;
22254;SDS011;11296;42.684;23.322;2022-12-11T17:08:10;4.63;;;2.80;;
22254;SDS011;11296;42.684;23.322;2022-12-11T17:10:39;13.17;;;6.70;;
22254;SDS011;11296;42.684;23.322;2022-12-11T17:13:19;7.30;;;4.27;;
22254;SDS011;11296;42.684;23.322;2022-12-11T17:15:50;28.87;;;12.33;;
22254;SDS011;11296;42.684;23.322;2022-12-11T17:18:17;16.37;;;8.47;;
22254;SDS011;11296;42.684;23.322;2022-12-11T17:20:43;13.13;;;6.50;;
22254;SDS011;11296;42.684;23.322;2022-12-11T17:23:12;6.23;;;4.00;;
22254;SDS011;11296;42.684;23.322;2022-12-11T17:25:41;5.77;;;3.83;;
22254;SDS011;11296;42.684;23.322;2022-12-11T17:28:20;5.07;;;3.13;;
22254;SDS011;11296;42.684;23.322;2022-12-11T17:30:45;4.47;;;3.57;;
22254;SDS011;11296;42.684;23.322;2022-12-11T17:33:17;5.20;;;4.03;;
22254;SDS011;11296;42.684;23.322;2022-12-11T17:35:43;5.30;;;3.80;;
22254;SDS011;11296;42.684;23.322;2022-12-11T17:38:08;6.00;;;3.60;;
22254;SDS011;11296;42.684;23.322;2022-12-11T17:40:39;5.00;;;3.80;;
22254;SDS011;11296;42.684;23.322;2022-12-11T17:43:05;3.90;;;2.93;;
22254;SDS011;11296;42.684;23.322;2022-12-11T17:45:42;3.70;;;3.20;;
22254;SDS011;11296;42.684;23.322;2022-12-11T17:48:09;5.13;;;2.80;;
22254;SDS011;11296;42.684;23.322;2022-12-11T17:50:40;4.60;;;2.93;;
22254;SDS011;11296;42.684;23.322;2022-12-11T17:53:07;3.57;;;2.90;;
22254;SDS011;11296;42.684;23.322;2022-12-11T17:55:36;4.47;;;3.40;;
22254;SDS011;11296;42.684;23.322;2022-12-11T17:58:07;5.60;;;3.43;;
22254;SDS011;11296;42.684;23.322;2022-12-11T18:00:39;5.17;;;3.57;;
22254;SDS011;11296;42.684;23.322;2022-12-11T18:03:07;4.63;;;3.80;;
22254;SDS011;11296;42.684;23.322;2022-12-11T18:05:33;6.40;;;4.30;;
22254;SDS011;11296;42.684;23.322;2022-12-11T18:08:00;5.27;;;3.73;;
22254;SDS011;11296;42.684;23.322;2022-12-11T18:10:31;4.90;;;3.03;;
22254;SDS011;11296;42.684;23.322;2022-12-11T18:13:01;5.33;;;3.53;;
22254;SDS011;11296;42.684;23.322;2022-12-11T18:15:29;4.50;;;3.50;;
22254;SDS011;11296;42.684;23.322;2022-12-11T18:17:56;7.73;;;4.83;;
22254;SDS011;11296;42.684;23.322;2022-12-11T18:20:22;7.00;;;4.57;;
22254;SDS011;11296;42.684;23.322;2022-12-11T18:22:58;5.87;;;3.87;;
22254;SDS011;11296;42.684;23.322;2022-12-11T18:25:24;5.70;;;4.27;;
22254;SDS011;11296;42.684;23.322;2022-12-11T18:27:50;4.80;;;3.57;;
22254;SDS011;11296;42.684;23.322;2022-12-11T18:30:19;5.37;;;3.87;;
22254;SDS011;11296;42.684;23.322;2022-12-11T18:32:45;4.80;;;4.10;;
22254;SDS011;11296;42.684;23.322;2022-12-11T18:35:11;3.97;;;3.10;;
22254;SDS011;11296;42.684;23.322;2022-12-11T18:37:39;4.03;;;3.60;;
22254;SDS011;11296;42.684;23.322;2022-12-11T18:40:08;4.17;;;3.37;;
22254;SDS011;11296;42.684;23.322;2022-12-11T18:42:38;3.20;;;2.73;;
22254;SDS011;11296;42.684;23.322;2022-12-11T18:45:04;7.13;;;4.00;;
22254;SDS011;11296;42.684;23.322;2022-12-11T18:47:31;6.33;;;4.00;;
22254;SDS011;11296;42.684;23.322;2022-12-11T18:49:56;7.53;;;4.37;;
22254;SDS011;11296;42.684;23.322;2022-12-11T18:52:28;3.73;;;2.77;;
22254;SDS011;11296;42.684;23.322;2022-12-11T18:54:54;7.20;;;4.43;;
22254;SDS011;11296;42.684;23.322;2022-12-11T18:57:25;5.83;;;3.83;;
22254;SDS011;11296;42.684;23.322;2022-12-11T18:59:52;13.47;;;6.63;;
22254;SDS011;11296;42.684;23.322;2022-12-11T19:02:19;5.70;;;4.30;;
22254;SDS011;11296;42.684;23.322;2022-12-11T19:05:00;5.17;;;3.43;;
22254;SDS011;11296;42.684;23.322;2022-12-11T19:07:27;5.50;;;3.83;;
22254;SDS011;11296;42.684;23.322;2022-12-11T19:09:53;5.63;;;4.10;;
22254;SDS011;11296;42.684;23.322;2022-12-11T19:12:18;5.43;;;4.30;;
22254;SDS011;11296;42.684;23.322;2022-12-11T19:14:45;4.73;;;3.70;;
22254;SDS011;11296;42.684;23.322;2022-12-11T19:17:13;5.60;;;3.60;;
22254;SDS011;11296;42.684;23.322;2022-12-11T19:19:42;4.77;;;3.90;;
22254;SDS011;11296;42.684;23.322;2022-12-11T19:22:10;6.47;;;4.23;;
22254;SDS011;11296;42.684;23.322;2022-12-11T19:24:41;5.97;;;4.47;;
22254;SDS011;11296;42.684;23.322;2022-12-11T19:27:07;6.47;;;4.27;;
22254;SDS011;11296;42.684;23.322;2022-12-11T19:29:33;5.57;;;4.33;;
22254;SDS011;11296;42.684;23.322;2022-12-11T19:32:02;5.33;;;4.33;;